sensor_id;sensor_type;location;lat;lon;timestamp;temperature;humidity
5176;DHT22;2607;50.934;6.934;2023-10-31T00:00:13;11.70;99.90
5176;DHT22;2607;50.934;6.934;2023-10-31T00:02:39;11.70;99.90
5176;DHT22;2607;50.934;6.934;2023-10-31T00:05:05;11.70;99.90
5176;DHT22;2607;50.934;6.934;2023-10-31T00:07:30;11.60;99.90
5176;DHT22;2607;50.934;6.934;2023-10-31T00:09:56;11.60;99.90
5176;DHT22;2607;50.934;6.934;2023-10-31T00:12:22;11.60;99.90
5176;DHT22;2607;50.934;6.934;2023-10-31T00:14:47;11.60;99.90
5176;DHT22;2607;50.934;6.934;2023-10-31T00:17:13;11.50;99.90
5176;DHT22;2607;50.934;6.934;2023-10-31T00:19:38;11.60;99.90
5176;DHT22;2607;50.934;6.934;2023-10-31T00:22:04;11.50;99.90
5176;DHT22;2607;50.934;6.934;2023-10-31T00:24:30;11.60;99.90
5176;DHT22;2607;50.934;6.934;2023-10-31T00:26:57;11.60;99.90
5176;DHT22;2607;50.934;6.934;2023-10-31T00:29:23;11.50;99.90
5176;DHT22;2607;50.934;6.934;2023-10-31T00:31:48;11.60;99.90
5176;DHT22;2607;50.934;6.934;2023-10-31T00:34:14;11.60;99.90
5176;DHT22;2607;50.934;6.934;2023-10-31T00:36:40;11.60;99.90
5176;DHT22;2607;50.934;6.934;2023-10-31T00:39:05;11.60;99.90
5176;DHT22;2607;50.934;6.934;2023-10-31T00:41:31;11.60;99.90
5176;DHT22;2607;50.934;6.934;2023-10-31T00:43:56;11.60;99.90
5176;DHT22;2607;50.934;6.934;2023-10-31T00:46:22;11.60;99.90
5176;DHT22;2607;50.934;6.934;2023-10-31T00:48:48;11.50;99.90
5176;DHT22;2607;50.934;6.934;2023-10-31T00:51:13;11.50;99.90
5176;DHT22;2607;50.934;6.934;2023-10-31T00:53:39;11.50;99.90
5176;DHT22;2607;50.934;6.934;2023-10-31T00:56:04;11.40;99.90
5176;DHT22;2607;50.934;6.934;2023-10-31T00:58:30;11.40;99.90
5176;DHT22;2607;50.934;6.934;2023-10-31T01:00:56;11.40;99.90
5176;DHT22;2607;50.934;6.934;2023-10-31T01:03:21;11.40;99.90
5176;DHT22;2607;50.934;6.934;2023-10-31T01:05:47;11.40;99.90
5176;DHT22;2607;50.934;6.934;2023-10-31T01:08:12;11.30;99.90
5176;DHT22;2607;50.934;6.934;2023-10-31T01:10:38;11.30;99.90
5176;DHT22;2607;50.934;6.934;2023-10-31T01:13:03;11.30;99.90
5176;DHT22;2607;50.934;6.934;2023-10-31T01:15:29;11.20;99.90
5176;DHT22;2607;50.934;6.934;2023-10-31T01:17:55;11.20;99.90
5176;DHT22;2607;50.934;6.934;2023-10-31T01:20:20;11.20;99.90
5176;DHT22;2607;50.934;6.934;2023-10-31T01:22:46;11.10;99.90
5176;DHT22;2607;50.934;6.934;2023-10-31T01:25:11;11.10;99.90
5176;DHT22;2607;50.934;6.934;2023-10-31T01:27:37;11.00;99.90
5176;DHT22;2607;50.934;6.934;2023-10-31T01:30:03;11.00;99.90
5176;DHT22;2607;50.934;6.934;2023-10-31T01:32:28;10.90;99.90
5176;DHT22;2607;50.934;6.934;2023-10-31T01:34:54;10.90;99.90
5176;DHT22;2607;50.934;6.934;2023-10-31T01:37:20;10.90;99.90
5176;DHT22;2607;50.934;6.934;2023-10-31T01:39:46;10.80;99.90
5176;DHT22;2607;50.934;6.934;2023-10-31T01:42:15;10.80;99.90
5176;DHT22;2607;50.934;6.934;2023-10-31T01:44:41;10.80;99.90
5176;DHT22;2607;50.934;6.934;2023-10-31T01:47:06;10.80;99.90
5176;DHT22;2607;50.934;6.934;2023-10-31T01:49:32;10.70;99.90
5176;DHT22;2607;50.934;6.934;2023-10-31T01:52:00;10.70;99.90
5176;DHT22;2607;50.934;6.934;2023-10-31T01:54:26;10.70;99.90
5176;DHT22;2607;50.934;6.934;2023-10-31T01:56:52;10.70;99.90
5176;DHT22;2607;50.934;6.934;2023-10-31T01:59:21;10.70;99.90
5176;DHT22;2607;50.934;6.934;2023-10-31T02:01:48;10.70;99.90
5176;DHT22;2607;50.934;6.934;2023-10-31T02:04:13;10.60;99.90
5176;DHT22;2607;50.934;6.934;2023-10-31T02:06:39;10.60;99.90
5176;DHT22;2607;50.934;6.934;2023-10-31T02:09:05;10.60;99.90
5176;DHT22;2607;50.934;6.934;2023-10-31T02:11:30;10.60;99.90
5176;DHT22;2607;50.934;6.934;2023-10-31T02:13:56;10.60;99.90
5176;DHT22;2607;50.934;6.934;2023-10-31T02:16:21;10.60;99.90
5176;DHT22;2607;50.934;6.934;2023-10-31T02:18:47;10.60;99.90
5176;DHT22;2607;50.934;6.934;2023-10-31T02:21:13;10.60;99.90
5176;DHT22;2607;50.934;6.934;2023-10-31T02:23:38;10.60;99.90
5176;DHT22;2607;50.934;6.934;2023-10-31T02:26:04;10.60;99.90
5176;DHT22;2607;50.934;6.934;2023-10-31T02:28:29;10.60;99.90
5176;DHT22;2607;50.934;6.934;2023-10-31T02:30:56;10.60;99.90
5176;DHT22;2607;50.934;6.934;2023-10-31T02:33:21;10.60;99.90
5176;DHT22;2607;50.934;6.934;2023-10-31T02:35:47;10.50;99.90
5176;DHT22;2607;50.934;6.934;2023-10-31T02:38:12;10.50;99.90
5176;DHT22;2607;50.934;6.934;2023-10-31T02:40:38;10.50;99.90
5176;DHT22;2607;50.934;6.934;2023-10-31T02:43:04;10.50;99.90
5176;DHT22;2607;50.934;6.934;2023-10-31T02:45:29;10.50;99.90
5176;DHT22;2607;50.934;6.934;2023-10-31T02:47:55;10.50;99.90
5176;DHT22;2607;50.934;6.934;2023-10-31T02:50:21;10.40;99.90
5176;DHT22;2607;50.934;6.934;2023-10-31T02:52:46;10.40;99.90
5176;DHT22;2607;50.934;6.934;2023-10-31T02:55:12;10.40;99.90
5176;DHT22;2607;50.934;6.934;2023-10-31T02:57:37;10.40;99.90
5176;DHT22;2607;50.934;6.934;2023-10-31T03:00:03;10.40;99.90
5176;DHT22;2607;50.934;6.934;2023-10-31T03:02:29;10.40;99.90
5176;DHT22;2607;50.934;6.934;2023-10-31T03:04:55;10.40;99.90
5176;DHT22;2607;50.934;6.934;2023-10-31T03:07:21;10.40;99.90
5176;DHT22;2607;50.934;6.934;2023-10-31T03:09:46;10.40;99.90
5176;DHT22;2607;50.934;6.934;2023-10-31T03:12:12;10.40;99.90
5176;DHT22;2607;50.934;6.934;2023-10-31T03:14:37;10.40;99.90
5176;DHT22;2607;50.934;6.934;2023-10-31T03:17:03;10.30;99.90
5176;DHT22;2607;50.934;6.934;2023-10-31T03:19:29;10.40;99.90
5176;DHT22;2607;50.934;6.934;2023-10-31T03:21:54;10.40;99.90
5176;DHT22;2607;50.934;6.934;2023-10-31T03:24:20;10.30;99.90
5176;DHT22;2607;50.934;6.934;2023-10-31T03:26:45;10.30;99.90
5176;DHT22;2607;50.934;6.934;2023-10-31T03:29:11;10.30;99.90
5176;DHT22;2607;50.934;6.934;2023-10-31T03:31:36;10.30;99.90
5176;DHT22;2607;50.934;6.934;2023-10-31T03:34:02;10.30;99.90
5176;DHT22;2607;50.934;6.934;2023-10-31T03:36:28;10.30;99.90
5176;DHT22;2607;50.934;6.934;2023-10-31T03:38:53;10.30;99.90
5176;DHT22;2607;50.934;6.934;2023-10-31T03:41:19;10.30;99.90
5176;DHT22;2607;50.934;6.934;2023-10-31T03:43:44;10.30;99.90
5176;DHT22;2607;50.934;6.934;2023-10-31T03:46:11;10.40;99.90
5176;DHT22;2607;50.934;6.934;2023-10-31T03:48:36;10.40;99.90
5176;DHT22;2607;50.934;6.934;2023-10-31T03:51:02;10.40;99.90
5176;DHT22;2607;50.934;6.934;2023-10-31T03:53:28;10.40;99.90
5176;DHT22;2607;50.934;6.934;2023-10-31T03:55:53;10.40;99.90
5176;DHT22;2607;50.934;6.934;2023-10-31T03:58:19;10.40;99.90
5176;DHT22;2607;50.934;6.934;2023-10-31T04:00:45;10.50;99.90
5176;DHT22;2607;50.934;6.934;2023-10-31T04:03:10;10.50;99.90
5176;DHT22;2607;50.934;6.934;2023-10-31T04:05:36;10.50;99.90
5176;DHT22;2607;50.934;6.934;2023-10-31T04:08:01;10.50;99.90
5176;DHT22;2607;50.934;6.934;2023-10-31T04:10:27;10.50;99.90
5176;DHT22;2607;50.934;6.934;2023-10-31T04:12:53;10.60;99.90
5176;DHT22;2607;50.934;6.934;2023-10-31T04:15:18;10.60;99.90
5176;DHT22;2607;50.934;6.934;2023-10-31T04:17:44;10.60;99.90
5176;DHT22;2607;50.934;6.934;2023-10-31T04:20:10;10.60;99.90
5176;DHT22;2607;50.934;6.934;2023-10-31T04:22:35;10.60;99.90
5176;DHT22;2607;50.934;6.934;2023-10-31T04:25:01;10.60;99.90
5176;DHT22;2607;50.934;6.934;2023-10-31T04:27:27;10.60;99.90
5176;DHT22;2607;50.934;6.934;2023-10-31T04:29:52;10.60;99.90
5176;DHT22;2607;50.934;6.934;2023-10-31T04:32:19;10.70;99.90
5176;DHT22;2607;50.934;6.934;2023-10-31T04:34:44;10.70;99.90
5176;DHT22;2607;50.934;6.934;2023-10-31T04:37:10;10.70;99.90
5176;DHT22;2607;50.934;6.934;2023-10-31T04:39:35;10.70;99.90
5176;DHT22;2607;50.934;6.934;2023-10-31T04:42:01;10.70;99.90
5176;DHT22;2607;50.934;6.934;2023-10-31T04:44:26;10.70;99.90
5176;DHT22;2607;50.934;6.934;2023-10-31T04:46:52;10.70;99.90
5176;DHT22;2607;50.934;6.934;2023-10-31T04:49:17;10.70;99.90
5176;DHT22;2607;50.934;6.934;2023-10-31T04:51:43;10.70;99.90
5176;DHT22;2607;50.934;6.934;2023-10-31T04:54:09;10.70;99.90
5176;DHT22;2607;50.934;6.934;2023-10-31T04:56:35;10.70;99.90
5176;DHT22;2607;50.934;6.934;2023-10-31T04:59:01;10.70;99.90
5176;DHT22;2607;50.934;6.934;2023-10-31T05:01:26;10.70;99.90
5176;DHT22;2607;50.934;6.934;2023-10-31T05:03:52;10.70;99.90
5176;DHT22;2607;50.934;6.934;2023-10-31T05:06:21;10.70;99.90
5176;DHT22;2607;50.934;6.934;2023-10-31T05:08:48;10.80;99.90
5176;DHT22;2607;50.934;6.934;2023-10-31T05:11:13;10.80;99.90
5176;DHT22;2607;50.934;6.934;2023-10-31T05:13:41;10.80;99.90
5176;DHT22;2607;50.934;6.934;2023-10-31T05:16:07;10.80;99.90
5176;DHT22;2607;50.934;6.934;2023-10-31T05:18:33;10.80;99.90
5176;DHT22;2607;50.934;6.934;2023-10-31T05:20:58;10.80;99.90
5176;DHT22;2607;50.934;6.934;2023-10-31T05:23:24;10.80;99.90
5176;DHT22;2607;50.934;6.934;2023-10-31T05:25:49;10.80;99.90
5176;DHT22;2607;50.934;6.934;2023-10-31T05:28:15;10.80;99.90
5176;DHT22;2607;50.934;6.934;2023-10-31T05:30:40;10.80;99.90
5176;DHT22;2607;50.934;6.934;2023-10-31T05:33:06;10.80;99.90
5176;DHT22;2607;50.934;6.934;2023-10-31T05:35:33;10.70;99.90
5176;DHT22;2607;50.934;6.934;2023-10-31T05:37:58;10.70;99.90
5176;DHT22;2607;50.934;6.934;2023-10-31T05:40:24;10.70;99.90
5176;DHT22;2607;50.934;6.934;2023-10-31T05:42:51;10.70;99.90
5176;DHT22;2607;50.934;6.934;2023-10-31T05:45:17;10.70;99.90
5176;DHT22;2607;50.934;6.934;2023-10-31T05:47:42;10.70;99.90
5176;DHT22;2607;50.934;6.934;2023-10-31T05:50:08;10.70;99.90
5176;DHT22;2607;50.934;6.934;2023-10-31T05:52:34;10.70;99.90
5176;DHT22;2607;50.934;6.934;2023-10-31T05:54:59;10.70;99.90
5176;DHT22;2607;50.934;6.934;2023-10-31T05:57:25;10.70;99.90
5176;DHT22;2607;50.934;6.934;2023-10-31T05:59:51;10.70;99.90
5176;DHT22;2607;50.934;6.934;2023-10-31T06:02:16;10.70;99.90
5176;DHT22;2607;50.934;6.934;2023-10-31T06:04:42;10.70;99.90
5176;DHT22;2607;50.934;6.934;2023-10-31T06:07:07;10.70;99.90
5176;DHT22;2607;50.934;6.934;2023-10-31T06:09:33;10.70;99.90
5176;DHT22;2607;50.934;6.934;2023-10-31T06:12:00;10.70;99.90
5176;DHT22;2607;50.934;6.934;2023-10-31T06:14:25;10.80;99.90
5176;DHT22;2607;50.934;6.934;2023-10-31T06:16:51;10.80;99.90
5176;DHT22;2607;50.934;6.934;2023-10-31T06:19:17;10.80;99.90
5176;DHT22;2607;50.934;6.934;2023-10-31T06:21:42;10.80;99.90
5176;DHT22;2607;50.934;6.934;2023-10-31T06:24:08;10.80;99.90
5176;DHT22;2607;50.934;6.934;2023-10-31T06:26:34;10.80;99.90
5176;DHT22;2607;50.934;6.934;2023-10-31T06:28:59;10.80;99.90
5176;DHT22;2607;50.934;6.934;2023-10-31T06:31:25;10.80;99.90
5176;DHT22;2607;50.934;6.934;2023-10-31T06:33:50;10.80;99.90
5176;DHT22;2607;50.934;6.934;2023-10-31T06:36:16;10.80;99.90
5176;DHT22;2607;50.934;6.934;2023-10-31T06:38:41;10.80;99.90
5176;DHT22;2607;50.934;6.934;2023-10-31T06:41:07;10.80;99.90
5176;DHT22;2607;50.934;6.934;2023-10-31T06:43:32;10.80;99.90
5176;DHT22;2607;50.934;6.934;2023-10-31T06:45:58;10.80;99.90
5176;DHT22;2607;50.934;6.934;2023-10-31T06:48:26;10.80;99.90
5176;DHT22;2607;50.934;6.934;2023-10-31T06:50:51;10.80;99.90
5176;DHT22;2607;50.934;6.934;2023-10-31T06:53:17;10.80;99.90
5176;DHT22;2607;50.934;6.934;2023-10-31T06:55:42;10.80;99.90
5176;DHT22;2607;50.934;6.934;2023-10-31T06:58:08;10.80;99.90
5176;DHT22;2607;50.934;6.934;2023-10-31T07:00:33;10.70;99.90
5176;DHT22;2607;50.934;6.934;2023-10-31T07:02:59;10.80;99.90
5176;DHT22;2607;50.934;6.934;2023-10-31T07:05:30;10.70;99.90
5176;DHT22;2607;50.934;6.934;2023-10-31T07:07:56;10.80;99.90
5176;DHT22;2607;50.934;6.934;2023-10-31T07:10:21;10.80;99.90
5176;DHT22;2607;50.934;6.934;2023-10-31T07:12:47;10.80;99.90
5176;DHT22;2607;50.934;6.934;2023-10-31T07:15:12;10.90;99.90
5176;DHT22;2607;50.934;6.934;2023-10-31T07:17:38;10.80;99.90
5176;DHT22;2607;50.934;6.934;2023-10-31T07:20:04;10.80;99.90
5176;DHT22;2607;50.934;6.934;2023-10-31T07:22:31;10.90;99.90
5176;DHT22;2607;50.934;6.934;2023-10-31T07:24:57;10.80;99.90
5176;DHT22;2607;50.934;6.934;2023-10-31T07:27:24;10.80;99.90
5176;DHT22;2607;50.934;6.934;2023-10-31T07:29:50;10.90;99.90
5176;DHT22;2607;50.934;6.934;2023-10-31T07:32:15;10.90;99.90
5176;DHT22;2607;50.934;6.934;2023-10-31T07:34:41;10.90;99.90
5176;DHT22;2607;50.934;6.934;2023-10-31T07:37:10;10.90;99.90
5176;DHT22;2607;50.934;6.934;2023-10-31T07:39:35;10.90;99.90
5176;DHT22;2607;50.934;6.934;2023-10-31T07:42:01;10.90;99.90
5176;DHT22;2607;50.934;6.934;2023-10-31T07:44:26;10.90;99.90
5176;DHT22;2607;50.934;6.934;2023-10-31T07:46:52;10.90;99.90
5176;DHT22;2607;50.934;6.934;2023-10-31T07:49:17;10.90;99.90
5176;DHT22;2607;50.934;6.934;2023-10-31T07:51:43;11.00;99.90
5176;DHT22;2607;50.934;6.934;2023-10-31T07:54:08;10.90;99.90
5176;DHT22;2607;50.934;6.934;2023-10-31T07:56:35;10.90;99.90
5176;DHT22;2607;50.934;6.934;2023-10-31T07:59:01;10.90;99.90
5176;DHT22;2607;50.934;6.934;2023-10-31T08:01:27;10.90;99.90
5176;DHT22;2607;50.934;6.934;2023-10-31T08:03:53;10.80;99.90
5176;DHT22;2607;50.934;6.934;2023-10-31T08:06:19;10.80;99.90
5176;DHT22;2607;50.934;6.934;2023-10-31T08:08:45;10.80;99.90
5176;DHT22;2607;50.934;6.934;2023-10-31T08:11:10;10.80;99.90
5176;DHT22;2607;50.934;6.934;2023-10-31T08:13:37;10.80;99.90
5176;DHT22;2607;50.934;6.934;2023-10-31T08:16:07;10.80;99.90
5176;DHT22;2607;50.934;6.934;2023-10-31T08:18:33;10.90;99.90
5176;DHT22;2607;50.934;6.934;2023-10-31T08:20:59;10.90;99.90
5176;DHT22;2607;50.934;6.934;2023-10-31T08:23:25;10.90;99.90
5176;DHT22;2607;50.934;6.934;2023-10-31T08:25:51;10.90;99.90
5176;DHT22;2607;50.934;6.934;2023-10-31T08:28:16;10.90;99.90
5176;DHT22;2607;50.934;6.934;2023-10-31T08:30:42;11.00;99.90
5176;DHT22;2607;50.934;6.934;2023-10-31T08:33:08;11.00;99.90
5176;DHT22;2607;50.934;6.934;2023-10-31T08:35:33;11.00;99.90
5176;DHT22;2607;50.934;6.934;2023-10-31T08:37:59;11.10;99.90
5176;DHT22;2607;50.934;6.934;2023-10-31T08:40:25;11.10;99.90
5176;DHT22;2607;50.934;6.934;2023-10-31T08:42:50;11.20;99.90
5176;DHT22;2607;50.934;6.934;2023-10-31T08:45:16;11.20;99.90
5176;DHT22;2607;50.934;6.934;2023-10-31T08:47:42;11.30;99.90
5176;DHT22;2607;50.934;6.934;2023-10-31T08:50:08;11.30;99.90
5176;DHT22;2607;50.934;6.934;2023-10-31T08:52:37;11.30;99.90
5176;DHT22;2607;50.934;6.934;2023-10-31T08:55:03;11.40;99.90
5176;DHT22;2607;50.934;6.934;2023-10-31T08:57:29;11.40;99.90
5176;DHT22;2607;50.934;6.934;2023-10-31T08:59:54;11.50;99.90
5176;DHT22;2607;50.934;6.934;2023-10-31T09:02:20;11.50;99.90
5176;DHT22;2607;50.934;6.934;2023-10-31T09:04:46;11.60;99.90
5176;DHT22;2607;50.934;6.934;2023-10-31T09:07:11;11.70;99.90
5176;DHT22;2607;50.934;6.934;2023-10-31T09:09:37;11.70;99.90
5176;DHT22;2607;50.934;6.934;2023-10-31T09:12:02;11.70;99.90
5176;DHT22;2607;50.934;6.934;2023-10-31T09:14:28;11.70;99.90
5176;DHT22;2607;50.934;6.934;2023-10-31T09:16:54;11.80;99.90
5176;DHT22;2607;50.934;6.934;2023-10-31T09:19:19;11.80;99.90
5176;DHT22;2607;50.934;6.934;2023-10-31T09:21:45;11.80;99.90
5176;DHT22;2607;50.934;6.934;2023-10-31T09:24:11;11.80;99.90
5176;DHT22;2607;50.934;6.934;2023-10-31T09:26:36;11.80;99.90
5176;DHT22;2607;50.934;6.934;2023-10-31T09:29:03;11.80;99.90
5176;DHT22;2607;50.934;6.934;2023-10-31T09:31:29;11.90;99.90
5176;DHT22;2607;50.934;6.934;2023-10-31T09:33:54;11.90;99.90
5176;DHT22;2607;50.934;6.934;2023-10-31T09:36:20;11.90;99.90
5176;DHT22;2607;50.934;6.934;2023-10-31T09:38:45;11.90;99.90
5176;DHT22;2607;50.934;6.934;2023-10-31T09:41:12;11.90;99.90
5176;DHT22;2607;50.934;6.934;2023-10-31T09:43:40;12.00;99.90
5176;DHT22;2607;50.934;6.934;2023-10-31T09:46:05;12.00;99.90
5176;DHT22;2607;50.934;6.934;2023-10-31T09:48:31;12.00;99.90
5176;DHT22;2607;50.934;6.934;2023-10-31T09:50:58;12.00;99.90
5176;DHT22;2607;50.934;6.934;2023-10-31T09:53:25;12.10;99.90
5176;DHT22;2607;50.934;6.934;2023-10-31T09:55:52;12.10;99.90
5176;DHT22;2607;50.934;6.934;2023-10-31T09:58:19;12.10;99.90
5176;DHT22;2607;50.934;6.934;2023-10-31T10:00:44;12.10;99.90
5176;DHT22;2607;50.934;6.934;2023-10-31T10:03:10;12.10;99.90
5176;DHT22;2607;50.934;6.934;2023-10-31T10:05:36;12.10;99.90
5176;DHT22;2607;50.934;6.934;2023-10-31T10:08:03;12.10;99.90
5176;DHT22;2607;50.934;6.934;2023-10-31T10:10:29;12.20;99.90
5176;DHT22;2607;50.934;6.934;2023-10-31T10:12:57;12.20;99.90
5176;DHT22;2607;50.934;6.934;2023-10-31T10:15:24;12.20;99.90
5176;DHT22;2607;50.934;6.934;2023-10-31T10:17:52;12.10;99.90
5176;DHT22;2607;50.934;6.934;2023-10-31T10:20:18;12.10;99.90
5176;DHT22;2607;50.934;6.934;2023-10-31T10:22:44;12.10;99.90
5176;DHT22;2607;50.934;6.934;2023-10-31T10:25:11;12.10;99.90
5176;DHT22;2607;50.934;6.934;2023-10-31T10:27:39;12.10;99.90
5176;DHT22;2607;50.934;6.934;2023-10-31T10:30:07;12.20;99.90
5176;DHT22;2607;50.934;6.934;2023-10-31T10:32:33;12.20;99.90
5176;DHT22;2607;50.934;6.934;2023-10-31T10:34:59;12.30;99.90
5176;DHT22;2607;50.934;6.934;2023-10-31T10:37:26;12.30;99.90
5176;DHT22;2607;50.934;6.934;2023-10-31T10:39:53;12.40;99.90
5176;DHT22;2607;50.934;6.934;2023-10-31T10:42:32;12.50;99.90
5176;DHT22;2607;50.934;6.934;2023-10-31T10:45:03;12.60;99.90
5176;DHT22;2607;50.934;6.934;2023-10-31T10:47:32;12.60;99.90
5176;DHT22;2607;50.934;6.934;2023-10-31T10:50:01;12.70;99.90
5176;DHT22;2607;50.934;6.934;2023-10-31T10:52:35;12.70;99.90
5176;DHT22;2607;50.934;6.934;2023-10-31T11:00:12;12.70;99.90
5176;DHT22;2607;50.934;6.934;2023-10-31T11:02:42;12.80;99.90
5176;DHT22;2607;50.934;6.934;2023-10-31T11:05:09;12.80;99.90
5176;DHT22;2607;50.934;6.934;2023-10-31T11:07:36;12.70;99.90
5176;DHT22;2607;50.934;6.934;2023-10-31T11:10:03;12.70;99.90
5176;DHT22;2607;50.934;6.934;2023-10-31T11:12:30;12.70;99.90
5176;DHT22;2607;50.934;6.934;2023-10-31T11:14:58;12.70;99.90
5176;DHT22;2607;50.934;6.934;2023-10-31T11:17:26;12.70;99.90
5176;DHT22;2607;50.934;6.934;2023-10-31T11:19:54;12.80;99.90
5176;DHT22;2607;50.934;6.934;2023-10-31T11:22:20;12.80;99.90
5176;DHT22;2607;50.934;6.934;2023-10-31T11:24:48;12.80;99.90
5176;DHT22;2607;50.934;6.934;2023-10-31T11:27:14;12.70;99.90
5176;DHT22;2607;50.934;6.934;2023-10-31T11:29:40;12.70;99.90
5176;DHT22;2607;50.934;6.934;2023-10-31T11:32:10;12.70;99.90
5176;DHT22;2607;50.934;6.934;2023-10-31T11:34:38;12.70;99.90
5176;DHT22;2607;50.934;6.934;2023-10-31T11:37:32;12.80;99.90
5176;DHT22;2607;50.934;6.934;2023-10-31T11:40:23;12.80;99.90
5176;DHT22;2607;50.934;6.934;2023-10-31T11:43:02;12.80;99.90
5176;DHT22;2607;50.934;6.934;2023-10-31T11:45:36;12.80;99.90
5176;DHT22;2607;50.934;6.934;2023-10-31T11:48:03;12.80;99.90
5176;DHT22;2607;50.934;6.934;2023-10-31T11:50:33;12.80;99.90
5176;DHT22;2607;50.934;6.934;2023-10-31T11:53:10;12.80;99.90
5176;DHT22;2607;50.934;6.934;2023-10-31T11:55:44;12.80;99.90
5176;DHT22;2607;50.934;6.934;2023-10-31T11:58:19;12.80;99.90
5176;DHT22;2607;50.934;6.934;2023-10-31T12:00:46;12.90;99.90
5176;DHT22;2607;50.934;6.934;2023-10-31T12:03:16;12.90;99.90
5176;DHT22;2607;50.934;6.934;2023-10-31T12:05:51;12.90;99.90
5176;DHT22;2607;50.934;6.934;2023-10-31T12:08:28;13.00;99.90
5176;DHT22;2607;50.934;6.934;2023-10-31T12:11:23;13.00;99.90
5176;DHT22;2607;50.934;6.934;2023-10-31T12:13:56;13.00;99.90
5176;DHT22;2607;50.934;6.934;2023-10-31T12:16:29;13.10;99.90
5176;DHT22;2607;50.934;6.934;2023-10-31T12:21:45;13.10;99.90
5176;DHT22;2607;50.934;6.934;2023-10-31T12:24:17;13.10;99.90
5176;DHT22;2607;50.934;6.934;2023-10-31T12:26:43;13.20;99.90
5176;DHT22;2607;50.934;6.934;2023-10-31T12:31:44;13.30;99.90
5176;DHT22;2607;50.934;6.934;2023-10-31T12:34:11;13.30;99.90
5176;DHT22;2607;50.934;6.934;2023-10-31T12:36:37;13.30;99.90
5176;DHT22;2607;50.934;6.934;2023-10-31T12:39:04;13.40;99.90
5176;DHT22;2607;50.934;6.934;2023-10-31T12:41:32;13.40;99.90
5176;DHT22;2607;50.934;6.934;2023-10-31T12:43:58;13.40;99.90
5176;DHT22;2607;50.934;6.934;2023-10-31T12:46:25;13.40;99.90
5176;DHT22;2607;50.934;6.934;2023-10-31T12:48:51;13.50;99.90
5176;DHT22;2607;50.934;6.934;2023-10-31T12:51:17;13.50;99.90
5176;DHT22;2607;50.934;6.934;2023-10-31T12:53:47;13.40;99.90
5176;DHT22;2607;50.934;6.934;2023-10-31T12:56:39;13.30;99.90
5176;DHT22;2607;50.934;6.934;2023-10-31T12:59:10;13.30;99.90
5176;DHT22;2607;50.934;6.934;2023-10-31T13:01:44;13.30;99.90
5176;DHT22;2607;50.934;6.934;2023-10-31T13:04:09;13.20;99.90
5176;DHT22;2607;50.934;6.934;2023-10-31T13:06:35;13.20;99.90
5176;DHT22;2607;50.934;6.934;2023-10-31T13:09:02;13.20;99.90
5176;DHT22;2607;50.934;6.934;2023-10-31T13:11:31;13.20;99.90
5176;DHT22;2607;50.934;6.934;2023-10-31T13:13:57;13.10;99.90
5176;DHT22;2607;50.934;6.934;2023-10-31T13:16:24;13.10;99.90
5176;DHT22;2607;50.934;6.934;2023-10-31T13:18:52;13.10;99.90
5176;DHT22;2607;50.934;6.934;2023-10-31T13:21:18;13.10;99.90
5176;DHT22;2607;50.934;6.934;2023-10-31T13:23:44;13.10;99.90
5176;DHT22;2607;50.934;6.934;2023-10-31T13:26:11;13.00;99.90
5176;DHT22;2607;50.934;6.934;2023-10-31T13:28:37;13.00;99.90
5176;DHT22;2607;50.934;6.934;2023-10-31T13:31:05;12.90;99.90
5176;DHT22;2607;50.934;6.934;2023-10-31T13:33:31;12.80;99.90
5176;DHT22;2607;50.934;6.934;2023-10-31T13:35:56;12.80;99.90
5176;DHT22;2607;50.934;6.934;2023-10-31T13:38:22;12.80;99.90
5176;DHT22;2607;50.934;6.934;2023-10-31T13:40:47;12.70;99.90
5176;DHT22;2607;50.934;6.934;2023-10-31T13:43:13;12.70;99.90
5176;DHT22;2607;50.934;6.934;2023-10-31T13:45:39;12.70;99.90
5176;DHT22;2607;50.934;6.934;2023-10-31T13:48:04;12.70;99.90
5176;DHT22;2607;50.934;6.934;2023-10-31T13:50:30;12.80;99.90
5176;DHT22;2607;50.934;6.934;2023-10-31T13:52:56;12.80;99.90
5176;DHT22;2607;50.934;6.934;2023-10-31T13:55:21;12.80;99.90
5176;DHT22;2607;50.934;6.934;2023-10-31T13:57:49;12.80;99.90
5176;DHT22;2607;50.934;6.934;2023-10-31T14:00:15;12.80;99.90
5176;DHT22;2607;50.934;6.934;2023-10-31T14:02:40;12.80;99.90
5176;DHT22;2607;50.934;6.934;2023-10-31T14:05:06;12.70;99.90
5176;DHT22;2607;50.934;6.934;2023-10-31T14:07:32;12.70;99.90
5176;DHT22;2607;50.934;6.934;2023-10-31T14:09:58;12.70;99.90
5176;DHT22;2607;50.934;6.934;2023-10-31T14:12:24;12.80;99.90
5176;DHT22;2607;50.934;6.934;2023-10-31T14:14:51;12.80;99.90
5176;DHT22;2607;50.934;6.934;2023-10-31T14:17:16;12.80;99.90
5176;DHT22;2607;50.934;6.934;2023-10-31T14:19:43;12.80;99.90
5176;DHT22;2607;50.934;6.934;2023-10-31T14:22:08;12.70;99.90
5176;DHT22;2607;50.934;6.934;2023-10-31T14:24:34;12.70;99.90
5176;DHT22;2607;50.934;6.934;2023-10-31T14:27:00;12.70;99.90
5176;DHT22;2607;50.934;6.934;2023-10-31T14:29:26;12.70;99.90
5176;DHT22;2607;50.934;6.934;2023-10-31T14:31:52;12.70;99.90
5176;DHT22;2607;50.934;6.934;2023-10-31T14:34:20;12.70;99.90
5176;DHT22;2607;50.934;6.934;2023-10-31T14:36:46;12.70;99.90
5176;DHT22;2607;50.934;6.934;2023-10-31T14:39:12;12.70;99.90
5176;DHT22;2607;50.934;6.934;2023-10-31T14:41:39;12.70;99.90
5176;DHT22;2607;50.934;6.934;2023-10-31T14:44:05;12.80;99.90
5176;DHT22;2607;50.934;6.934;2023-10-31T14:46:31;12.80;99.90
5176;DHT22;2607;50.934;6.934;2023-10-31T14:48:58;12.80;99.90
5176;DHT22;2607;50.934;6.934;2023-10-31T14:51:24;12.80;99.90
5176;DHT22;2607;50.934;6.934;2023-10-31T14:53:49;12.70;99.90
5176;DHT22;2607;50.934;6.934;2023-10-31T14:56:16;12.70;99.90
5176;DHT22;2607;50.934;6.934;2023-10-31T14:58:42;12.70;99.90
5176;DHT22;2607;50.934;6.934;2023-10-31T15:01:07;12.70;99.90
5176;DHT22;2607;50.934;6.934;2023-10-31T15:03:33;12.80;99.90
5176;DHT22;2607;50.934;6.934;2023-10-31T15:05:59;12.80;99.90
5176;DHT22;2607;50.934;6.934;2023-10-31T15:08:24;12.80;99.90
5176;DHT22;2607;50.934;6.934;2023-10-31T15:10:51;12.80;99.90
5176;DHT22;2607;50.934;6.934;2023-10-31T15:13:17;12.80;99.90
5176;DHT22;2607;50.934;6.934;2023-10-31T15:15:43;12.80;99.90
5176;DHT22;2607;50.934;6.934;2023-10-31T15:18:09;12.80;99.90
5176;DHT22;2607;50.934;6.934;2023-10-31T15:20:34;12.80;99.90
5176;DHT22;2607;50.934;6.934;2023-10-31T15:23:00;12.80;99.90
5176;DHT22;2607;50.934;6.934;2023-10-31T15:25:26;12.90;99.90
5176;DHT22;2607;50.934;6.934;2023-10-31T15:27:51;12.90;99.90
5176;DHT22;2607;50.934;6.934;2023-10-31T15:30:17;12.90;99.90
5176;DHT22;2607;50.934;6.934;2023-10-31T15:32:43;12.90;99.90
5176;DHT22;2607;50.934;6.934;2023-10-31T15:35:08;12.90;99.90
5176;DHT22;2607;50.934;6.934;2023-10-31T15:37:35;12.90;99.90
5176;DHT22;2607;50.934;6.934;2023-10-31T15:40:01;12.90;99.90
5176;DHT22;2607;50.934;6.934;2023-10-31T15:42:26;12.90;99.90
5176;DHT22;2607;50.934;6.934;2023-10-31T15:44:53;12.90;99.90
5176;DHT22;2607;50.934;6.934;2023-10-31T15:47:21;12.90;99.90
5176;DHT22;2607;50.934;6.934;2023-10-31T15:49:47;12.90;99.90
5176;DHT22;2607;50.934;6.934;2023-10-31T15:52:12;12.90;99.90
5176;DHT22;2607;50.934;6.934;2023-10-31T15:54:38;12.90;99.90
5176;DHT22;2607;50.934;6.934;2023-10-31T15:57:03;12.90;99.90
5176;DHT22;2607;50.934;6.934;2023-10-31T15:59:29;12.80;99.90
5176;DHT22;2607;50.934;6.934;2023-10-31T16:01:55;12.90;99.90
5176;DHT22;2607;50.934;6.934;2023-10-31T16:04:20;12.80;99.90
5176;DHT22;2607;50.934;6.934;2023-10-31T16:06:49;12.80;99.90